createdAt,value
2023-11-20T00:06:38.277Z,93.5
2023-11-20T00:26:38.266Z,93.4
2023-11-20T00:46:38.221Z,93.2
2023-11-20T01:06:38.152Z,92.7
2023-11-20T01:26:38.205Z,92.3
2023-11-20T01:46:38.173Z,91.8
2023-11-20T02:06:38.123Z,90.4
2023-11-20T02:26:38.193Z,89.7
2023-11-20T03:06:38.075Z,88.5
2023-11-20T03:26:38.141Z,89.2
2023-11-20T03:46:38.107Z,88.9
2023-11-20T04:06:38.076Z,89.8
2023-11-20T04:26:38.037Z,90.0
2023-11-20T04:46:38.091Z,89.6
2023-11-20T05:06:38.120Z,87.9
2023-11-20T05:26:38.044Z,86.9
2023-11-20T05:46:38.007Z,86.7
2023-11-20T06:06:37.996Z,86.1
2023-11-20T06:26:37.941Z,87.1
2023-11-20T06:46:38.002Z,87.1
2023-11-20T07:06:38.144Z,86.8
2023-11-20T07:26:37.947Z,85.3
2023-11-20T07:46:37.908Z,84.0
2023-11-20T08:06:37.894Z,83.4
2023-11-20T08:26:37.954Z,84.2
2023-11-20T08:46:37.911Z,84.0
2023-11-20T09:26:37.855Z,82.7
2023-11-20T09:46:37.808Z,82.6
2023-11-20T10:06:37.782Z,82.3
2023-11-20T10:26:37.840Z,81.8
2023-11-20T10:46:37.813Z,81.9
2023-11-20T11:06:37.875Z,80.5
2023-11-20T11:26:37.745Z,82.8
2023-11-20T11:46:37.709Z,82.8
2023-11-20T12:06:37.777Z,83.1
2023-11-20T12:26:37.746Z,81.7
2023-11-20T12:46:37.716Z,80.0
2023-11-20T13:06:37.684Z,80.5
2023-11-20T13:26:37.665Z,81.0
2023-11-20T13:46:37.674Z,74.9
2023-11-20T14:06:37.693Z,74.5
2023-11-20T14:26:37.801Z,74.2
2023-11-20T14:46:37.696Z,75.3
2023-11-20T15:06:37.643Z,76.7
2023-11-20T15:26:37.581Z,79.0
2023-11-20T15:46:37.535Z,80.3
2023-11-20T16:06:37.506Z,79.5
2023-11-20T16:46:37.544Z,80.8
2023-11-20T17:06:37.639Z,81.6
2023-11-20T17:26:37.524Z,81.0
2023-11-20T17:46:37.530Z,82.0
2023-11-20T18:06:37.427Z,82.1
2023-11-20T18:26:37.526Z,84.5
2023-11-20T18:46:37.561Z,84.4
2023-11-20T19:06:37.460Z,84.5
2023-11-20T19:26:37.540Z,85.3
2023-11-20T19:46:37.406Z,86.0
2023-11-20T20:06:37.535Z,85.6
2023-11-20T20:26:37.530Z,86.0
2023-11-20T20:46:37.385Z,86.2
2023-11-20T21:06:37.362Z,86.1
2023-11-20T21:26:37.334Z,84.3
2023-11-20T21:46:37.380Z,82.8
2023-11-20T22:06:37.360Z,83.7
2023-11-20T22:26:37.313Z,83.8
2023-11-20T22:46:37.287Z,84.8
2023-11-20T23:06:37.366Z,86.7
2023-11-20T23:26:37.308Z,88.5
2023-11-20T23:46:37.298Z,88.4
